Time;durP1;ratioP1;P1;durP2;ratioP2;P2;SDS_P1;SDS_P2;PMS_P1;PMS_P2;Temp;Humidity;BMP_temperature;BMP_pressure;BME280_temperature;BME280_humidity;BME280_pressure;Samples;Min_cycle;Max_cycle;Signal;HPM_P1;HPM_P2
2023/06/24 00:00:31;;;;;;;15.65;10.35;;;16.50;99.90;;;;;;5064400;28;20047;-64
2023/06/24 00:03:02;;;;;;;19.08;11.60;;;16.50;99.90;;;;;;5046779;28;20063;-65
2023/06/24 00:05:28;;;;;;;16.85;11.63;;;16.50;99.90;;;;;;5063576;28;20079;-64
2023/06/24 00:07:56;;;;;;;15.85;12.18;;;16.40;99.90;;;;;;5063944;28;20037;-63
2023/06/24 00:10:22;;;;;;;18.90;11.40;;;16.30;99.90;;;;;;5064222;28;20201;-65
2023/06/24 00:12:48;;;;;;;19.38;12.68;;;16.30;99.90;;;;;;5063910;28;20052;-65
2023/06/24 00:15:14;;;;;;;16.30;11.43;;;16.20;99.90;;;;;;5063976;28;20398;-64
2023/06/24 00:17:40;;;;;;;17.60;11.45;;;16.20;99.90;;;;;;5063936;28;20395;-65
2023/06/24 00:20:10;;;;;;;17.77;12.65;;;16.20;99.90;;;;;;5064934;28;20449;-64
2023/06/24 00:22:43;;;;;;;20.60;13.35;;;16.20;99.90;;;;;;5066950;28;20055;-65
2023/06/24 00:25:13;;;;;;;21.20;13.48;;;16.10;99.90;;;;;;5066875;28;20055;-63
2023/06/24 00:27:42;;;;;;;18.75;13.63;;;16.10;99.90;;;;;;5057408;28;20536;-63
2023/06/24 00:30:09;;;;;;;23.67;13.13;;;16.00;99.90;;;;;;5047486;28;20500;-66
2023/06/24 00:32:34;;;;;;;19.67;13.05;;;16.00;99.90;;;;;;5063336;28;20538;-64
2023/06/24 00:35:00;;;;;;;18.38;13.27;;;16.00;99.90;;;;;;5063297;28;20045;-65
2023/06/24 00:37:26;;;;;;;20.35;13.40;;;16.10;99.90;;;;;;5063607;28;20492;-64
2023/06/24 00:39:51;;;;;;;20.48;13.77;;;16.00;99.90;;;;;;5063859;28;20665;-65
2023/06/24 00:42:17;;;;;;;21.48;14.20;;;16.00;99.90;;;;;;5063668;28;20135;-64
2023/06/24 00:44:43;;;;;;;25.58;14.55;;;16.00;99.90;;;;;;5081056;28;20039;-66
2023/06/24 00:47:09;;;;;;;22.23;14.05;;;16.00;99.90;;;;;;5063569;28;20492;-64
2023/06/24 00:49:35;;;;;;;21.48;14.05;;;16.00;99.90;;;;;;5063465;28;20045;-65
2023/06/24 00:52:01;;;;;;;18.65;12.23;;;16.00;99.90;;;;;;5064323;28;20523;-66
2023/06/24 00:54:30;;;;;;;18.00;11.68;;;15.90;99.90;;;;;;5063228;28;20050;-65
2023/06/24 00:57:00;;;;;;;18.63;13.18;;;15.90;99.90;;;;;;5063237;28;20037;-66
2023/06/24 00:59:31;;;;;;;18.48;13.20;;;15.90;99.90;;;;;;5063552;28;20621;-64
2023/06/24 01:02:04;;;;;;;19.42;13.45;;;15.90;99.90;;;;;;5062879;28;20569;-63
2023/06/24 01:04:33;;;;;;;18.42;12.85;;;15.90;99.90;;;;;;5063305;28;20048;-63
2023/06/24 01:07:00;;;;;;;20.52;12.77;;;15.90;99.90;;;;;;5063157;28;20411;-65
2023/06/24 01:09:26;;;;;;;20.90;14.18;;;15.90;99.90;;;;;;5062941;28;20051;-65
2023/06/24 01:11:52;;;;;;;23.85;15.30;;;15.90;99.90;;;;;;5046346;28;20055;-65
2023/06/24 01:14:22;;;;;;;23.77;15.90;;;15.80;99.90;;;;;;5064392;28;20036;-65
2023/06/24 01:17:08;;;;;;;24.98;17.52;;;15.80;99.90;;;;;;5069095;28;20051;-63
2023/06/24 01:20:04;;;;;;;27.20;17.27;;;15.70;99.90;;;;;;5090149;28;20239;-65
2023/06/24 01:22:52;;;;;;;25.70;16.45;;;15.60;99.90;;;;;;5053483;28;20048;-65
2023/06/24 01:25:36;;;;;;;22.30;15.30;;;15.50;99.90;;;;;;5081140;28;20537;-64
2023/06/24 01:28:08;;;;;;;22.05;14.25;;;15.40;99.90;;;;;;5063103;28;20051;-64
2023/06/24 01:31:11;;;;;;;25.88;15.70;;;15.40;99.90;;;;;;5069687;28;20066;-65
2023/06/24 01:33:43;;;;;;;18.90;13.68;;;15.40;99.90;;;;;;5069590;28;20047;-65
2023/06/24 01:36:18;;;;;;;18.85;13.48;;;15.30;99.90;;;;;;5069568;28;20534;-64
2023/06/24 01:38:51;;;;;;;19.05;13.45;;;15.30;99.90;;;;;;5053367;28;20308;-64
2023/06/24 01:41:23;;;;;;;23.90;14.77;;;15.40;99.90;;;;;;5069558;28;20102;-64
2023/06/24 01:43:52;;;;;;;18.88;13.00;;;15.30;99.90;;;;;;5069528;28;20040;-65
2023/06/24 01:46:22;;;;;;;20.33;13.55;;;15.30;99.90;;;;;;5081637;28;20086;-63
2023/06/24 01:48:55;;;;;;;21.27;14.77;;;15.30;99.90;;;;;;5089704;28;20570;-67
2023/06/24 01:51:24;;;;;;;20.90;14.15;;;15.30;99.90;;;;;;5059453;28;20070;-66
2023/06/24 01:54:00;;;;;;;23.65;15.30;;;15.20;99.90;;;;;;5052819;28;20072;-67
2023/06/24 01:56:28;;;;;;;19.42;12.63;;;15.10;99.90;;;;;;5069652;28;20106;-65
2023/06/24 01:58:57;;;;;;;26.65;15.25;;;15.10;99.90;;;;;;5071396;28;20051;-67
2023/06/24 02:01:24;;;;;;;23.30;15.77;;;15.00;99.90;;;;;;5052496;28;20113;-64
2023/06/24 02:03:52;;;;;;;25.73;16.33;;;15.00;99.90;;;;;;5069399;28;20048;-64
2023/06/24 02:06:19;;;;;;;25.00;15.90;;;14.90;99.90;;;;;;5079954;28;20075;-63
2023/06/24 02:08:47;;;;;;;22.60;15.82;;;15.00;99.90;;;;;;5072291;28;20294;-67
2023/06/24 02:11:14;;;;;;;23.83;15.63;;;14.90;99.90;;;;;;5072791;28;20097;-65
2023/06/24 02:13:45;;;;;;;25.48;16.55;;;14.90;99.90;;;;;;5055510;28;20059;-65
2023/06/24 02:16:13;;;;;;;23.48;15.77;;;14.90;99.90;;;;;;5052814;28;20134;-65
2023/06/24 02:18:42;;;;;;;21.55;14.90;;;14.90;99.90;;;;;;5052762;28;20369;-64
2023/06/24 02:21:10;;;;;;;21.85;13.95;;;15.00;99.90;;;;;;5078534;28;20046;-66
2023/06/24 02:23:40;;;;;;;22.52;15.73;;;15.00;99.90;;;;;;5072332;28;20035;-66
2023/06/24 02:26:09;;;;;;;20.70;14.02;;;15.00;99.90;;;;;;5086949;28;20417;-66
2023/06/24 02:28:35;;;;;;;20.65;14.15;;;15.00;99.90;;;;;;5085813;28;20044;-64
2023/06/24 02:31:01;;;;;;;24.48;14.40;;;14.90;99.90;;;;;;5076902;28;20393;-67
2023/06/24 02:33:28;;;;;;;20.30;14.38;;;15.00;99.90;;;;;;5065897;28;20321;-66
2023/06/24 02:35:54;;;;;;;22.35;14.05;;;15.00;99.90;;;;;;5081779;28;20047;-64
2023/06/24 02:38:20;;;;;;;20.88;14.70;;;15.00;99.90;;;;;;5049522;28;20447;-66
2023/06/24 02:40:49;;;;;;;20.83;14.13;;;15.00;99.90;;;;;;5049116;28;20037;-66
2023/06/24 02:43:15;;;;;;;21.88;15.30;;;15.00;99.90;;;;;;5065661;28;20036;-64
2023/06/24 02:45:47;;;;;;;22.73;14.52;;;15.00;99.90;;;;;;5049558;28;20048;-66
2023/06/24 02:48:18;;;;;;;19.63;14.60;;;15.00;99.90;;;;;;5065736;28;20344;-65
2023/06/24 02:50:44;;;;;;;20.10;13.98;;;15.00;99.90;;;;;;5071221;28;20048;-64
2023/06/24 02:53:12;;;;;;;24.45;16.33;;;15.00;99.90;;;;;;5068926;28;20305;-64
2023/06/24 02:55:39;;;;;;;21.25;14.63;;;15.00;99.90;;;;;;5073081;28;20440;-65
2023/06/24 02:58:07;;;;;;;20.73;14.63;;;15.00;99.90;;;;;;5065649;28;20040;-64
2023/06/24 03:00:34;;;;;;;22.95;14.27;;;14.90;99.90;;;;;;5048257;28;20049;-65
2023/06/24 03:03:05;;;;;;;18.42;13.32;;;14.90;99.90;;;;;;5065404;28;20102;-64
2023/06/24 03:05:35;;;;;;;20.38;14.55;;;14.90;99.90;;;;;;5065184;28;20559;-63
2023/06/24 03:08:10;;;;;;;22.80;15.30;;;14.80;99.90;;;;;;5066871;28;20041;-65
2023/06/24 03:10:37;;;;;;;19.83;14.18;;;14.80;99.90;;;;;;5048999;28;20314;-66
2023/06/24 03:13:03;;;;;;;21.52;14.90;;;14.80;99.90;;;;;;5065164;28;20075;-65
2023/06/24 03:15:28;;;;;;;22.95;14.98;;;14.80;99.90;;;;;;5064798;28;20029;-64
2023/06/24 03:17:55;;;;;;;22.45;14.80;;;14.80;99.90;;;;;;5065011;28;20048;-65
2023/06/24 03:20:23;;;;;;;22.55;14.32;;;14.80;99.90;;;;;;5048874;28;20040;-66
2023/06/24 03:22:49;;;;;;;21.95;14.88;;;14.70;99.90;;;;;;5082000;28;20433;-67
2023/06/24 03:25:18;;;;;;;21.13;15.30;;;14.70;99.90;;;;;;5075780;28;20047;-65
2023/06/24 03:27:43;;;;;;;22.50;15.18;;;14.70;99.90;;;;;;5085256;28;20044;-67
2023/06/24 03:30:15;;;;;;;21.20;14.00;;;14.70;99.90;;;;;;5064550;28;20091;-66
2023/06/24 03:32:46;;;;;;;32.88;15.02;;;14.70;99.90;;;;;;5064335;28;20396;-65
2023/06/24 03:35:22;;;;;;;22.48;14.75;;;14.70;99.90;;;;;;5075174;28;20240;-66
2023/06/24 03:37:51;;;;;;;20.70;13.80;;;14.70;99.90;;;;;;5064994;28;20044;-65
2023/06/24 03:40:17;;;;;;;22.90;14.25;;;14.70;99.90;;;;;;5064705;28;20537;-65
2023/06/24 03:42:50;;;;;;;20.73;13.15;;;14.70;99.90;;;;;;5047946;28;20048;-64
2023/06/24 03:45:15;;;;;;;19.90;13.70;;;14.70;99.90;;;;;;5067298;28;20111;-66
2023/06/24 03:47:47;;;;;;;21.38;13.70;;;14.70;99.90;;;;;;5067742;28;20139;-65
2023/06/24 03:50:13;;;;;;;19.77;12.77;;;14.80;99.90;;;;;;5082118;28;20035;-64
2023/06/24 03:52:39;;;;;;;20.67;13.80;;;14.80;99.90;;;;;;5081078;28;20407;-66
2023/06/24 03:55:05;;;;;;;23.17;14.32;;;14.90;99.90;;;;;;5047326;28;20550;-65
2023/06/24 03:57:32;;;;;;;23.63;14.02;;;15.00;99.90;;;;;;5064210;28;20055;-63
2023/06/24 04:00:15;;;;;;;20.58;13.60;;;15.10;99.90;;;;;;5077645;28;20056;-67
2023/06/24 04:02:41;;;;;;;20.83;13.40;;;15.20;99.90;;;;;;5047445;28;20057;-64
2023/06/24 04:05:08;;;;;;;19.75;12.98;;;15.40;99.90;;;;;;5065385;28;20055;-65
2023/06/24 04:07:35;;;;;;;17.27;12.20;;;15.50;99.90;;;;;;5063945;28;20298;-65
2023/06/24 04:10:08;;;;;;;19.33;12.40;;;15.60;99.90;;;;;;5048029;28;20040;-64
2023/06/24 04:12:35;;;;;;;18.30;11.77;;;15.70;99.90;;;;;;5063979;28;20051;-64
2023/06/24 04:15:10;;;;;;;21.30;12.80;;;15.70;99.90;;;;;;5065499;28;20240;-65
2023/06/24 04:17:38;;;;;;;17.80;11.80;;;15.60;99.90;;;;;;5064099;28;20036;-65
2023/06/24 04:20:08;;;;;;;19.88;12.73;;;15.80;99.90;;;;;;5064350;28;20488;-64
2023/06/24 04:22:34;;;;;;;18.67;12.40;;;15.90;99.90;;;;;;5064075;28;20491;-64
2023/06/24 04:25:02;;;;;;;19.48;12.63;;;16.20;99.90;;;;;;5063957;28;20048;-65
2023/06/24 04:27:28;;;;;;;19.65;12.52;;;16.50;99.90;;;;;;5063513;28;20071;-64
2023/06/24 04:29:54;;;;;;;17.98;11.75;;;16.70;99.90;;;;;;5066302;28;20079;-67
2023/06/24 04:32:20;;;;;;;15.77;11.43;;;16.90;99.90;;;;;;5046924;28;20763;-65
2023/06/24 04:34:48;;;;;;;19.83;12.32;;;17.20;99.90;;;;;;5063812;28;20129;-66
2023/06/24 04:37:17;;;;;;;17.77;11.15;;;17.40;99.90;;;;;;5061620;28;20137;-65
2023/06/24 04:39:43;;;;;;;16.50;11.13;;;17.70;99.90;;;;;;5063502;28;20044;-65
2023/06/24 04:42:10;;;;;;;19.40;11.88;;;17.90;99.90;;;;;;5064694;28;20054;-67
2023/06/24 04:44:36;;;;;;;18.92;11.65;;;18.10;99.90;;;;;;5063317;28;20048;-64
2023/06/24 04:47:03;;;;;;;13.52;10.38;;;18.20;99.90;;;;;;5062725;28;20079;-66
2023/06/24 04:49:28;;;;;;;18.52;11.65;;;18.20;99.90;;;;;;5062986;28;20036;-63
2023/06/24 04:51:54;;;;;;;16.25;10.52;;;18.30;99.90;;;;;;5061517;28;20576;-65
2023/06/24 04:54:19;;;;;;;14.30;10.48;;;18.40;99.90;;;;;;5064718;28;20543;-65
2023/06/24 04:56:48;;;;;;;15.82;10.52;;;18.70;99.90;;;;;;5064313;28;20130;-65
2023/06/24 04:59:13;;;;;;;17.92;10.25;;;18.90;99.90;;;;;;5065439;28;20046;-66
2023/06/24 05:01:39;;;;;;;16.05;10.23;;;19.00;99.90;;;;;;5067702;28;20052;-63
2023/06/24 05:04:06;;;;;;;17.42;10.27;;;19.10;99.90;;;;;;5063200;28;20052;-66
2023/06/24 05:06:31;;;;;;;17.35;10.35;;;19.20;99.90;;;;;;5073194;28;20048;-67
2023/06/24 05:08:57;;;;;;;18.77;11.73;;;19.30;99.90;;;;;;5083427;28;20070;-63
2023/06/24 05:11:22;;;;;;;15.85;10.77;;;19.40;99.90;;;;;;5066868;28;20051;-64
2023/06/24 05:13:48;;;;;;;15.82;10.48;;;19.40;99.90;;;;;;5066397;28;20071;-65
2023/06/24 05:16:14;;;;;;;13.65;9.88;;;19.60;99.90;;;;;;5070834;28;20148;-64
2023/06/24 05:18:39;;;;;;;15.20;9.77;;;19.70;99.90;;;;;;5063015;28;20446;-65
2023/06/24 05:21:05;;;;;;;15.55;10.27;;;19.90;99.90;;;;;;5069881;28;20048;-66
2023/06/24 05:23:30;;;;;;;13.70;9.38;;;20.30;99.90;;;;;;5082977;28;20050;-66
2023/06/24 05:25:56;;;;;;;13.50;9.95;;;20.40;99.90;;;;;;5074303;28;20127;-65
2023/06/24 05:28:22;;;;;;;16.15;10.02;;;20.70;99.90;;;;;;5079791;28;20040;-66
2023/06/24 05:30:47;;;;;;;13.45;9.82;;;21.30;99.90;;;;;;5062817;28;20059;-64
2023/06/24 05:33:13;;;;;;;16.42;10.35;;;21.50;99.90;;;;;;5063011;28;20072;-67
2023/06/24 05:35:40;;;;;;;15.50;10.55;;;21.60;99.90;;;;;;5061439;28;20036;-65
2023/06/24 05:38:06;;;;;;;12.88;9.00;;;21.60;99.90;;;;;;5062625;28;20046;-64
2023/06/24 05:40:35;;;;;;;14.75;8.63;;;21.60;99.90;;;;;;5062852;28;20623;-68
2023/06/24 05:43:02;;;;;;;14.95;9.32;;;21.50;99.90;;;;;;5053058;28;20044;-65
2023/06/24 05:45:28;;;;;;;12.35;8.75;;;21.40;99.90;;;;;;5061286;28;20033;-64
2023/06/24 05:47:54;;;;;;;16.83;10.15;;;21.50;99.90;;;;;;5046409;28;20122;-65
2023/06/24 05:50:19;;;;;;;12.48;8.85;;;21.50;99.90;;;;;;5061802;28;20812;-66
2023/06/24 05:52:45;;;;;;;12.93;9.10;;;21.50;99.90;;;;;;5062037;28;20102;-66
2023/06/24 05:55:13;;;;;;;12.75;8.75;;;21.50;99.90;;;;;;5046073;28;20046;-64
2023/06/24 05:57:39;;;;;;;13.30;8.45;;;21.60;99.90;;;;;;5061847;28;20071;-65
2023/06/24 06:00:06;;;;;;;12.93;8.05;;;21.70;99.90;;;;;;5062402;28;20072;-64
2023/06/24 06:02:31;;;;;;;12.18;8.23;;;21.70;99.90;;;;;;5047936;28;20052;-63
2023/06/24 06:04:57;;;;;;;13.02;9.13;;;21.80;99.90;;;;;;5065381;28;20404;-65
2023/06/24 06:07:22;;;;;;;11.20;8.30;;;21.90;99.90;;;;;;5066641;28;20438;-64
2023/06/24 06:09:48;;;;;;;14.23;8.02;;;21.90;99.90;;;;;;5066306;28;20048;-65
2023/06/24 06:12:14;;;;;;;12.68;8.95;;;22.00;99.90;;;;;;5065998;28;20037;-66
2023/06/24 06:14:39;;;;;;;13.40;8.35;;;22.00;99.90;;;;;;5066090;28;20037;-65
2023/06/24 06:17:05;;;;;;;12.73;8.27;;;22.00;99.90;;;;;;5048769;28;20435;-65
2023/06/24 06:19:30;;;;;;;14.18;8.52;;;22.10;99.90;;;;;;5049787;28;20102;-65
2023/06/24 06:21:56;;;;;;;11.13;7.80;;;22.20;99.90;;;;;;5064639;28;20040;-65
2023/06/24 06:24:24;;;;;;;12.68;7.65;;;22.30;99.90;;;;;;5065816;28;20111;-65
2023/06/24 06:26:50;;;;;;;11.52;8.02;;;22.30;99.90;;;;;;5065807;28;20044;-65
2023/06/24 06:29:15;;;;;;;11.32;8.30;;;22.40;99.90;;;;;;5065560;28;20389;-67
2023/06/24 06:31:44;;;;;;;13.10;8.80;;;22.30;99.90;;;;;;5065842;28;20040;-68
2023/06/24 06:34:12;;;;;;;13.32;7.63;;;22.40;99.90;;;;;;5048956;28;20040;-65
2023/06/24 06:36:38;;;;;;;11.25;8.02;;;22.30;99.90;;;;;;5080782;28;20519;-63
2023/06/24 06:39:03;;;;;;;12.63;7.35;;;22.40;99.90;;;;;;5065980;28;20083;-64
2023/06/24 06:41:32;;;;;;;12.50;8.15;;;22.40;99.90;;;;;;5055285;28;20047;-66
2023/06/24 06:43:58;;;;;;;12.27;6.90;;;22.50;99.90;;;;;;5069156;28;20050;-67
2023/06/24 06:46:23;;;;;;;11.75;7.20;;;22.50;99.90;;;;;;5072256;28;20169;-67
2023/06/24 06:48:49;;;;;;;10.80;6.40;;;22.60;99.90;;;;;;5082571;28;20128;-67
2023/06/24 06:51:18;;;;;;;11.98;6.63;;;22.50;99.90;;;;;;5081434;28;20809;-66
2023/06/24 06:53:44;;;;;;;11.88;7.40;;;22.40;99.90;;;;;;5064897;28;20036;-65
2023/06/24 06:56:24;;;;;;;12.45;7.03;;;22.30;99.90;;;;;;5046552;28;20078;-67
2023/06/24 06:58:50;;;;;;;9.85;7.47;;;22.20;99.90;;;;;;5067704;28;20108;-65
2023/06/24 07:01:16;;;;;;;10.45;7.18;;;22.10;99.90;;;;;;5079295;28;20586;-65
2023/06/24 07:03:49;;;;;;;12.48;7.43;;;22.00;99.90;;;;;;5067701;28;20051;-64
2023/06/24 07:06:20;;;;;;;11.98;8.00;;;22.10;99.90;;;;;;5092196;28;20056;-66
2023/06/24 07:08:46;;;;;;;11.52;8.13;;;22.00;99.90;;;;;;5084525;28;20043;-65
2023/06/24 07:11:11;;;;;;;11.70;8.45;;;22.00;99.90;;;;;;5085450;28;20702;-68
2023/06/24 07:13:37;;;;;;;13.60;8.23;;;22.00;99.90;;;;;;5084219;28;20457;-66
2023/06/24 07:16:03;;;;;;;12.02;8.25;;;22.00;99.90;;;;;;5062149;28;20037;-66
2023/06/24 07:18:30;;;;;;;13.45;9.32;;;22.00;99.90;;;;;;5081800;28;20055;-66
2023/06/24 07:20:59;;;;;;;13.02;9.70;;;22.10;99.90;;;;;;5064164;28;20147;-65
2023/06/24 07:23:28;;;;;;;16.50;9.70;;;22.20;99.90;;;;;;5064234;28;20075;-66
2023/06/24 07:25:55;;;;;;;13.32;9.43;;;22.20;99.90;;;;;;5047666;28;20499;-66
2023/06/24 07:28:33;;;;;;;15.10;9.98;;;22.20;99.90;;;;;;5075490;28;20740;-70
2023/06/24 07:30:59;;;;;;;13.80;10.18;;;22.30;99.90;;;;;;5062238;28;20494;-66
2023/06/24 07:33:25;;;;;;;17.17;11.30;;;22.30;99.90;;;;;;5065786;28;20044;-65
2023/06/24 07:35:51;;;;;;;15.10;9.57;;;22.40;99.90;;;;;;5079201;28;20032;-70
2023/06/24 07:38:16;;;;;;;17.25;10.98;;;22.40;99.90;;;;;;5084177;28;20142;-65
2023/06/24 07:40:42;;;;;;;18.40;10.75;;;22.40;99.90;;;;;;5067134;28;20051;-66
2023/06/24 07:43:07;;;;;;;14.02;9.90;;;22.40;99.90;;;;;;5065859;28;20470;-65
2023/06/24 07:45:33;;;;;;;14.35;10.18;;;22.50;99.90;;;;;;5081794;28;20631;-68
2023/06/24 07:47:59;;;;;;;15.00;10.50;;;22.60;99.90;;;;;;5084453;28;20040;-69
2023/06/24 07:50:25;;;;;;;17.63;10.65;;;22.60;99.90;;;;;;5079922;28;20568;-69
2023/06/24 07:52:51;;;;;;;14.18;10.10;;;22.60;99.90;;;;;;5071906;28;20131;-68
2023/06/24 07:55:17;;;;;;;18.20;10.23;;;22.60;99.90;;;;;;5083970;28;20036;-69
2023/06/24 07:57:46;;;;;;;16.38;9.20;;;22.70;99.90;;;;;;5082480;28;20027;-69
2023/06/24 08:00:13;;;;;;;16.08;10.95;;;22.70;99.90;;;;;;5050733;28;20031;-68
2023/06/24 08:02:39;;;;;;;12.35;8.63;;;22.80;99.90;;;;;;5071701;28;20170;-68
2023/06/24 08:05:05;;;;;;;13.52;8.45;;;22.90;99.90;;;;;;5068418;28;20058;-68
2023/06/24 08:07:30;;;;;;;11.98;7.05;;;23.00;99.90;;;;;;5069169;28;20054;-69
2023/06/24 08:09:56;;;;;;;12.73;7.20;;;23.20;99.90;;;;;;5069626;28;20082;-69
2023/06/24 08:12:22;;;;;;;16.88;7.15;;;23.30;99.90;;;;;;5072216;28;21289;-69
2023/06/24 08:14:47;;;;;;;9.52;5.60;;;23.40;99.30;;;;;;5070755;28;21017;-70
2023/06/24 08:17:13;;;;;;;10.00;5.95;;;23.60;98.40;;;;;;5054517;28;20552;-70
2023/06/24 08:19:39;;;;;;;7.75;4.80;;;23.60;97.40;;;;;;5071441;28;20044;-70
2023/06/24 08:22:04;;;;;;;7.70;5.22;;;23.60;97.20;;;;;;5070603;28;20054;-72
2023/06/24 08:24:31;;;;;;;9.15;5.05;;;23.50;97.20;;;;;;5067869;28;20300;-70
2023/06/24 08:26:57;;;;;;;9.23;5.97;;;23.50;96.60;;;;;;5068268;28;20400;-68
2023/06/24 08:29:23;;;;;;;11.52;5.43;;;23.50;96.40;;;;;;5072315;28;20044;-68
2023/06/24 08:31:48;;;;;;;10.70;5.75;;;23.60;97.00;;;;;;5069995;28;20044;-70
2023/06/24 08:34:15;;;;;;;9.63;5.78;;;23.50;96.80;;;;;;5071949;28;20036;-69
2023/06/24 08:36:41;;;;;;;10.88;5.28;;;23.60;96.80;;;;;;5064071;28;20073;-66
2023/06/24 08:39:07;;;;;;;7.78;5.07;;;23.80;97.00;;;;;;5066560;28;20154;-69
2023/06/24 08:41:33;;;;;;;8.93;5.82;;;23.80;97.30;;;;;;5066426;28;20035;-68
2023/06/24 08:43:58;;;;;;;9.00;5.30;;;23.90;97.20;;;;;;5067371;28;20047;-71
2023/06/24 08:46:25;;;;;;;9.95;5.25;;;24.00;97.30;;;;;;5042873;28;20256;-67
2023/06/24 08:49:09;;;;;;;8.90;4.95;;;24.00;97.00;;;;;;5053964;28;20039;-68
2023/06/24 08:51:38;;;;;;;;;;;24.00;96.70;;;;;;5054625;28;20139;-69
2023/06/24 08:54:06;;;;;;;11.35;5.57;;;24.10;97.00;;;;;;5055652;28;19927;-68
2023/06/24 08:56:33;;;;;;;9.05;5.63;;;24.10;97.10;;;;;;5075518;28;20047;-68
2023/06/24 08:58:58;;;;;;;11.40;6.40;;;24.20;97.00;;;;;;5075080;28;20198;-67
2023/06/24 09:01:26;;;;;;;9.80;5.97;;;24.20;96.40;;;;;;5073031;28;20060;-73
2023/06/24 09:03:52;;;;;;;9.80;5.85;;;24.20;96.10;;;;;;5075628;28;20047;-71
2023/06/24 09:06:18;;;;;;;10.32;5.80;;;24.20;96.30;;;;;;5057754;28;20112;-67
2023/06/24 09:08:55;;;;;;;8.07;5.00;;;24.20;96.10;;;;;;5055807;28;20177;-68
2023/06/24 09:11:28;;;;;;;10.65;5.70;;;24.30;96.30;;;;;;5056781;28;20051;-66
2023/06/24 09:13:58;;;;;;;12.10;6.50;;;24.30;96.30;;;;;;5075616;28;20122;-69
2023/06/24 09:16:24;;;;;;;13.23;5.72;;;24.40;96.30;;;;;;5055207;28;20538;-70
2023/06/24 09:18:51;;;;;;;11.40;5.97;;;24.50;95.80;;;;;;5077781;28;20088;-69
2023/06/24 09:21:30;;;;;;;11.75;5.63;;;24.50;95.50;;;;;;5071876;28;20039;-67
2023/06/24 09:23:56;;;;;;;10.32;5.25;;;24.60;95.00;;;;;;5063292;28;20047;-66
2023/06/24 09:26:27;;;;;;;10.45;5.57;;;24.50;95.40;;;;;;5078603;28;20491;-68
2023/06/24 09:28:54;;;;;;;9.40;5.10;;;24.50;95.20;;;;;;5082385;28;20114;-69
2023/06/24 09:31:20;;;;;;;9.88;5.57;;;24.50;95.00;;;;;;5079528;28;20083;-68
2023/06/24 09:33:48;;;;;;;8.68;5.20;;;24.40;94.90;;;;;;5081766;28;20076;-69
2023/06/24 09:36:17;;;;;;;14.63;5.47;;;24.40;95.10;;;;;;5081939;28;20410;-72
2023/06/24 09:38:46;;;;;;;12.82;5.30;;;24.40;95.40;;;;;;5069248;28;20048;-73
2023/06/24 09:41:12;;;;;;;10.43;5.25;;;24.40;95.40;;;;;;5070076;28;20036;-69
2023/06/24 09:43:42;;;;;;;9.02;4.60;;;24.50;95.50;;;;;;5080673;28;20040;-67
2023/06/24 09:46:08;;;;;;;11.35;6.03;;;24.50;96.00;;;;;;5085084;28;20410;-68
2023/06/24 09:48:34;;;;;;;13.50;5.25;;;24.50;95.60;;;;;;5087038;28;20252;-73
2023/06/24 09:51:04;;;;;;;9.32;5.97;;;24.60;96.10;;;;;;5084725;28;20032;-70
2023/06/24 09:53:35;;;;;;;11.02;6.03;;;24.60;95.80;;;;;;5086807;28;20131;-71
2023/06/24 09:56:03;;;;;;;10.80;5.35;;;24.70;95.40;;;;;;5086899;28;20518;-67
2023/06/24 09:58:32;;;;;;;12.23;5.95;;;24.80;95.90;;;;;;5069399;28;20085;-71
2023/06/24 10:01:03;;;;;;;9.50;4.93;;;24.90;95.60;;;;;;5072425;28;20044;-70
2023/06/24 10:03:31;;;;;;;10.00;5.85;;;25.10;96.10;;;;;;5066957;28;20052;-67
2023/06/24 10:05:58;;;;;;;12.88;5.40;;;25.10;95.40;;;;;;5081668;28;20050;-66
2023/06/24 10:08:24;;;;;;;10.00;5.28;;;25.20;94.90;;;;;;5086983;28;20745;-68
2023/06/24 10:10:49;;;;;;;9.35;5.45;;;25.20;94.60;;;;;;5069615;28;20043;-68
2023/06/24 10:13:15;;;;;;;9.45;5.10;;;25.30;94.50;;;;;;5066189;28;20423;-71
2023/06/24 10:15:41;;;;;;;10.43;4.97;;;25.40;94.30;;;;;;5066023;28;20032;-67
2023/06/24 10:18:35;;;;;;;8.13;4.53;;;25.40;94.10;;;;;;5066390;28;20040;-72
2023/06/24 10:21:02;;;;;;;9.50;5.28;;;25.50;94.20;;;;;;5065965;28;20579;-66
2023/06/24 10:23:41;;;;;;;9.70;5.22;;;25.60;94.10;;;;;;5049339;28;20048;-67
2023/06/24 10:26:21;;;;;;;8.90;4.95;;;25.60;93.30;;;;;;5065681;28;20052;-72
2023/06/24 10:29:05;;;;;;;8.27;4.72;;;25.70;93.50;;;;;;5049291;28;20040;-71
2023/06/24 10:31:40;;;;;;;7.07;4.57;;;25.70;93.80;;;;;;5066116;28;20075;-68
2023/06/24 10:34:25;;;;;;;8.23;5.40;;;25.80;94.40;;;;;;5049319;28;20044;-66
2023/06/24 10:36:55;;;;;;;9.93;4.72;;;25.90;92.90;;;;;;5063796;28;20055;-71
2023/06/24 10:39:38;;;;;;;8.25;4.50;;;25.80;92.50;;;;;;5049215;28;20036;-70
2023/06/24 10:42:23;;;;;;;7.72;4.50;;;25.90;92.30;;;;;;5065968;28;20040;-69
2023/06/24 10:44:49;;;;;;;10.73;4.32;;;25.90;92.40;;;;;;5065877;28;20048;-66
2023/06/24 10:47:15;;;;;;;6.45;3.88;;;25.90;92.40;;;;;;5066003;28;20289;-72
2023/06/24 10:49:40;;;;;;;9.73;4.72;;;26.00;91.30;;;;;;5061661;28;20480;-70
2023/06/24 10:52:10;;;;;;;11.48;4.00;;;26.00;90.90;;;;;;5064200;28;20045;-70
2023/06/24 10:54:38;;;;;;;7.13;3.78;;;26.00;90.60;;;;;;5049093;28;20036;-66
2023/06/24 10:57:04;;;;;;;8.45;4.45;;;26.10;91.30;;;;;;5065515;28;20036;-68
2023/06/24 10:59:41;;;;;;;7.38;4.25;;;26.10;90.00;;;;;;5065306;28;20036;-69
2023/06/24 11:02:14;;;;;;;8.20;4.13;;;26.00;89.70;;;;;;5065190;28;20056;-69
2023/06/24 11:04:47;;;;;;;9.20;3.60;;;26.00;90.20;;;;;;5065369;28;20055;-69
2023/06/24 11:07:13;;;;;;;7.65;4.07;;;26.00;90.50;;;;;;5063446;28;20462;-68
2023/06/24 11:09:42;;;;;;;7.57;3.97;;;26.10;91.10;;;;;;5066893;28;20090;-70
2023/06/24 11:12:11;;;;;;;9.90;4.55;;;26.20;87.20;;;;;;5065367;28;20472;-71
2023/06/24 11:14:38;;;;;;;9.20;3.85;;;26.30;87.50;;;;;;5049343;28;20292;-68
2023/06/24 11:17:04;;;;;;;8.93;4.10;;;26.40;86.60;;;;;;5065499;28;20032;-65
2023/06/24 11:19:31;;;;;;;7.20;3.90;;;26.50;85.00;;;;;;5066927;28;20131;-70
2023/06/24 11:22:00;;;;;;;7.20;3.65;;;26.50;86.10;;;;;;5078356;28;20051;-71
2023/06/24 11:24:28;;;;;;;9.20;4.13;;;26.60;86.10;;;;;;5064590;28;20044;-67
2023/06/24 11:26:54;;;;;;;9.23;4.40;;;26.70;85.00;;;;;;5065381;28;20051;-68
2023/06/24 11:29:20;;;;;;;7.43;3.78;;;26.80;83.60;;;;;;5064713;28;20037;-67
2023/06/24 11:31:46;;;;;;;7.85;3.78;;;26.80;83.40;;;;;;5065056;28;20073;-67
2023/06/24 11:34:11;;;;;;;7.68;3.85;;;26.90;82.70;;;;;;5064861;28;20036;-68
2023/06/24 11:36:37;;;;;;;7.32;3.63;;;26.90;83.80;;;;;;5068428;28;20119;-68
2023/06/24 11:39:03;;;;;;;8.23;3.30;;;27.00;82.70;;;;;;5048239;28;20120;-70
2023/06/24 11:41:28;;;;;;;6.68;3.47;;;26.90;82.70;;;;;;5064845;28;20045;-70
2023/06/24 11:43:57;;;;;;;8.55;4.00;;;26.80;81.60;;;;;;5064954;28;20040;-66
2023/06/24 11:46:36;;;;;;;7.15;3.92;;;26.70;82.00;;;;;;5063942;28;20427;-71
2023/06/24 11:49:05;;;;;;;6.82;3.85;;;26.60;82.30;;;;;;5065079;28;20044;-69
2023/06/24 11:51:31;;;;;;;8.68;4.20;;;26.50;82.10;;;;;;5066682;28;20102;-66
2023/06/24 11:54:02;;;;;;;6.22;3.38;;;26.40;82.00;;;;;;5064580;28;20036;-71
2023/06/24 11:56:41;;;;;;;9.85;3.88;;;26.30;82.70;;;;;;5063941;28;20128;-70
2023/06/24 11:59:22;;;;;;;7.10;3.58;;;26.30;81.80;;;;;;5047227;28;20035;-68
2023/06/24 12:01:59;;;;;;;8.18;3.67;;;26.30;84.00;;;;;;5063784;28;20063;-71
2023/06/24 12:04:31;;;;;;;10.05;4.63;;;26.60;84.00;;;;;;5047801;28;20053;-66
2023/06/24 12:06:58;;;;;;;15.27;3.83;;;26.70;80.70;;;;;;5062450;28;20123;-73
2023/06/24 12:09:24;;;;;;;6.30;3.83;;;26.80;80.20;;;;;;5064365;28;20070;-67
2023/06/24 12:11:50;;;;;;;6.85;3.40;;;26.90;81.00;;;;;;5064120;28;20048;-67
2023/06/24 12:14:15;;;;;;;8.07;4.43;;;27.00;80.20;;;;;;5064210;28;20049;-68
2023/06/24 12:16:41;;;;;;;6.95;3.58;;;27.00;80.00;;;;;;5076609;28;20044;-67
2023/06/24 12:19:07;;;;;;;8.45;4.00;;;27.00;80.80;;;;;;5084802;28;20044;-70
2023/06/24 12:21:34;;;;;;;7.28;3.85;;;27.10;81.70;;;;;;5072264;28;20048;-69
2023/06/24 12:24:00;;;;;;;6.75;3.65;;;27.10;80.00;;;;;;5064066;28;20044;-69
2023/06/24 12:26:26;;;;;;;9.00;4.05;;;27.10;81.00;;;;;;5084129;28;20042;-70
2023/06/24 12:28:55;;;;;;;10.48;4.47;;;27.00;81.90;;;;;;5067479;28;20468;-69
2023/06/24 12:31:21;;;;;;;7.80;4.30;;;26.90;82.00;;;;;;5050880;28;20571;-73
2023/06/24 12:33:47;;;;;;;7.97;4.43;;;26.70;82.70;;;;;;5063692;28;20247;-69
2023/06/24 12:36:12;;;;;;;8.00;4.00;;;26.60;83.70;;;;;;5062504;28;20040;-71
2023/06/24 12:38:38;;;;;;;6.75;3.92;;;26.60;84.00;;;;;;5063232;28;20212;-70
2023/06/24 12:41:04;;;;;;;7.00;3.55;;;26.60;83.70;;;;;;5064219;28;20116;-68